sensor_id;sensor_type;location;lat;lon;timestamp;temperature;humidity
24902;DHT22;31328;51.402;0.016;2022-11-15T00:02:33;11.40;99.90
24902;DHT22;31328;51.402;0.016;2022-11-15T00:05:18;11.40;99.90
24902;DHT22;31328;51.402;0.016;2022-11-15T00:08:03;11.40;99.90
24902;DHT22;31328;51.402;0.016;2022-11-15T00:10:54;11.30;99.90
24902;DHT22;31328;51.402;0.016;2022-11-15T00:13:40;11.30;99.90
24902;DHT22;31328;51.402;0.016;2022-11-15T00:16:25;11.20;99.90
24902;DHT22;31328;51.402;0.016;2022-11-15T00:19:09;11.10;99.90
24902;DHT22;31328;51.402;0.016;2022-11-15T00:21:54;11.10;99.90
24902;DHT22;31328;51.402;0.016;2022-11-15T00:24:39;11.00;99.90
24902;DHT22;31328;51.402;0.016;2022-11-15T00:27:24;11.00;99.90
24902;DHT22;31328;51.402;0.016;2022-11-15T00:30:09;10.90;99.90
24902;DHT22;31328;51.402;0.016;2022-11-15T00:32:54;10.80;99.90
24902;DHT22;31328;51.402;0.016;2022-11-15T00:35:39;10.80;99.90
24902;DHT22;31328;51.402;0.016;2022-11-15T00:38:24;10.80;99.90
24902;DHT22;31328;51.402;0.016;2022-11-15T00:41:09;10.70;99.90
24902;DHT22;31328;51.402;0.016;2022-11-15T00:43:54;10.70;99.90
24902;DHT22;31328;51.402;0.016;2022-11-15T00:46:39;10.60;99.90
24902;DHT22;31328;51.402;0.016;2022-11-15T00:49:23;10.60;99.90
24902;DHT22;31328;51.402;0.016;2022-11-15T00:52:08;10.50;99.90
24902;DHT22;31328;51.402;0.016;2022-11-15T00:54:53;10.50;99.90
24902;DHT22;31328;51.402;0.016;2022-11-15T00:57:38;10.50;99.90
24902;DHT22;31328;51.402;0.016;2022-11-15T01:00:23;10.50;99.90
24902;DHT22;31328;51.402;0.016;2022-11-15T01:03:08;10.40;99.90
24902;DHT22;31328;51.402;0.016;2022-11-15T01:05:52;10.40;99.90
24902;DHT22;31328;51.402;0.016;2022-11-15T01:08:41;10.40;99.90
24902;DHT22;31328;51.402;0.016;2022-11-15T01:11:26;10.40;99.90
24902;DHT22;31328;51.402;0.016;2022-11-15T01:14:10;10.40;99.90
24902;DHT22;31328;51.402;0.016;2022-11-15T01:16:55;10.40;99.90
24902;DHT22;31328;51.402;0.016;2022-11-15T01:19:40;10.40;99.90
24902;DHT22;31328;51.402;0.016;2022-11-15T01:22:25;10.50;99.90
24902;DHT22;31328;51.402;0.016;2022-11-15T01:25:10;10.50;99.90
24902;DHT22;31328;51.402;0.016;2022-11-15T01:27:55;10.50;99.90
24902;DHT22;31328;51.402;0.016;2022-11-15T01:30:40;10.50;99.90
24902;DHT22;31328;51.402;0.016;2022-11-15T01:33:24;10.60;99.90
24902;DHT22;31328;51.402;0.016;2022-11-15T01:36:18;10.50;99.90
24902;DHT22;31328;51.402;0.016;2022-11-15T01:39:03;10.60;99.90
24902;DHT22;31328;51.402;0.016;2022-11-15T01:41:47;10.60;99.90
24902;DHT22;31328;51.402;0.016;2022-11-15T01:44:40;10.60;99.90
24902;DHT22;31328;51.402;0.016;2022-11-15T01:47:31;10.60;99.90
24902;DHT22;31328;51.402;0.016;2022-11-15T01:50:20;10.60;99.90
24902;DHT22;31328;51.402;0.016;2022-11-15T01:53:06;10.70;99.90
24902;DHT22;31328;51.402;0.016;2022-11-15T01:55:51;10.70;99.90
24902;DHT22;31328;51.402;0.016;2022-11-15T01:58:37;10.70;99.90
24902;DHT22;31328;51.402;0.016;2022-11-15T02:01:24;10.80;99.90
24902;DHT22;31328;51.402;0.016;2022-11-15T02:04:19;10.70;99.90
24902;DHT22;31328;51.402;0.016;2022-11-15T02:07:08;10.80;99.90
24902;DHT22;31328;51.402;0.016;2022-11-15T02:09:54;10.80;99.90
24902;DHT22;31328;51.402;0.016;2022-11-15T02:12:40;10.70;99.90
24902;DHT22;31328;51.402;0.016;2022-11-15T02:15:32;10.70;99.90
24902;DHT22;31328;51.402;0.016;2022-11-15T02:18:28;10.70;99.90
24902;DHT22;31328;51.402;0.016;2022-11-15T02:21:42;10.70;99.90
24902;DHT22;31328;51.402;0.016;2022-11-15T02:24:48;10.70;99.90
24902;DHT22;31328;51.402;0.016;2022-11-15T02:40:41;10.80;99.90
24902;DHT22;31328;51.402;0.016;2022-11-15T02:43:53;10.80;99.90
24902;DHT22;31328;51.402;0.016;2022-11-15T02:46:49;10.80;99.90
24902;DHT22;31328;51.402;0.016;2022-11-15T02:49:58;10.80;99.90
24902;DHT22;31328;51.402;0.016;2022-11-15T02:52:48;10.90;99.90
24902;DHT22;31328;51.402;0.016;2022-11-15T02:55:34;10.80;99.90
24902;DHT22;31328;51.402;0.016;2022-11-15T03:07:44;10.70;99.90
24902;DHT22;31328;51.402;0.016;2022-11-15T03:13:35;10.70;99.90
24902;DHT22;31328;51.402;0.016;2022-11-15T03:16:30;10.80;99.90
24902;DHT22;31328;51.402;0.016;2022-11-15T03:19:53;10.80;99.90
24902;DHT22;31328;51.402;0.016;2022-11-15T03:22:42;10.80;99.90
24902;DHT22;31328;51.402;0.016;2022-11-15T03:25:29;10.90;99.90
24902;DHT22;31328;51.402;0.016;2022-11-15T03:28:23;10.90;99.90
24902;DHT22;31328;51.402;0.016;2022-11-15T03:31:11;10.90;99.90
24902;DHT22;31328;51.402;0.016;2022-11-15T03:37:34;11.00;99.90
24902;DHT22;31328;51.402;0.016;2022-11-15T03:40:40;11.00;99.90
24902;DHT22;31328;51.402;0.016;2022-11-15T03:46:26;11.10;99.90
24902;DHT22;31328;51.402;0.016;2022-11-15T03:49:17;11.10;99.90
24902;DHT22;31328;51.402;0.016;2022-11-15T03:52:04;11.10;99.90
24902;DHT22;31328;51.402;0.016;2022-11-15T03:54:54;11.20;99.90
24902;DHT22;31328;51.402;0.016;2022-11-15T03:57:39;11.20;99.90
24902;DHT22;31328;51.402;0.016;2022-11-15T04:00:24;11.20;99.90
24902;DHT22;31328;51.402;0.016;2022-11-15T04:03:09;11.20;99.90
24902;DHT22;31328;51.402;0.016;2022-11-15T04:05:54;11.20;99.90
24902;DHT22;31328;51.402;0.016;2022-11-15T04:08:38;11.20;99.90
24902;DHT22;31328;51.402;0.016;2022-11-15T04:11:23;11.20;99.90
24902;DHT22;31328;51.402;0.016;2022-11-15T04:14:08;11.20;99.90
24902;DHT22;31328;51.402;0.016;2022-11-15T04:16:53;11.10;99.90
24902;DHT22;31328;51.402;0.016;2022-11-15T04:19:38;11.10;99.90
24902;DHT22;31328;51.402;0.016;2022-11-15T04:22:42;11.10;99.90
24902;DHT22;31328;51.402;0.016;2022-11-15T04:25:49;11.10;99.90
24902;DHT22;31328;51.402;0.016;2022-11-15T04:28:35;11.10;99.90
24902;DHT22;31328;51.402;0.016;2022-11-15T04:31:20;11.20;99.90
24902;DHT22;31328;51.402;0.016;2022-11-15T04:34:05;11.10;99.90
24902;DHT22;31328;51.402;0.016;2022-11-15T04:36:50;11.10;99.90
24902;DHT22;31328;51.402;0.016;2022-11-15T04:39:54;11.20;99.90
24902;DHT22;31328;51.402;0.016;2022-11-15T04:42:41;11.20;99.90
24902;DHT22;31328;51.402;0.016;2022-11-15T04:45:26;11.20;99.90
24902;DHT22;31328;51.402;0.016;2022-11-15T04:48:11;11.30;99.90
24902;DHT22;31328;51.402;0.016;2022-11-15T04:50:56;11.30;99.90
24902;DHT22;31328;51.402;0.016;2022-11-15T04:53:41;11.40;99.90
24902;DHT22;31328;51.402;0.016;2022-11-15T04:56:26;11.50;99.90
24902;DHT22;31328;51.402;0.016;2022-11-15T04:59:11;11.50;99.90
24902;DHT22;31328;51.402;0.016;2022-11-15T05:01:55;11.60;99.90
24902;DHT22;31328;51.402;0.016;2022-11-15T05:04:40;11.60;99.90
24902;DHT22;31328;51.402;0.016;2022-11-15T05:07:25;11.60;99.90
24902;DHT22;31328;51.402;0.016;2022-11-15T05:10:10;11.70;99.90
24902;DHT22;31328;51.402;0.016;2022-11-15T05:12:55;11.70;99.90
24902;DHT22;31328;51.402;0.016;2022-11-15T05:15:39;11.70;99.90
24902;DHT22;31328;51.402;0.016;2022-11-15T05:18:24;11.70;99.90
24902;DHT22;31328;51.402;0.016;2022-11-15T05:21:13;11.80;99.90
24902;DHT22;31328;51.402;0.016;2022-11-15T05:23:59;11.90;99.90
24902;DHT22;31328;51.402;0.016;2022-11-15T05:26:43;11.90;99.90
24902;DHT22;31328;51.402;0.016;2022-11-15T05:29:28;11.90;99.90
24902;DHT22;31328;51.402;0.016;2022-11-15T05:32:13;12.00;99.90
24902;DHT22;31328;51.402;0.016;2022-11-15T05:34:58;12.00;99.90
24902;DHT22;31328;51.402;0.016;2022-11-15T05:37:43;12.10;99.90
24902;DHT22;31328;51.402;0.016;2022-11-15T05:40:28;12.20;99.90
24902;DHT22;31328;51.402;0.016;2022-11-15T05:43:14;12.20;99.90
24902;DHT22;31328;51.402;0.016;2022-11-15T05:45:59;12.20;99.90
24902;DHT22;31328;51.402;0.016;2022-11-15T05:48:49;12.30;99.90
24902;DHT22;31328;51.402;0.016;2022-11-15T05:51:34;12.30;99.90
24902;DHT22;31328;51.402;0.016;2022-11-15T05:54:20;12.30;99.90
24902;DHT22;31328;51.402;0.016;2022-11-15T05:57:06;12.40;99.90
24902;DHT22;31328;51.402;0.016;2022-11-15T05:59:51;12.40;99.90
24902;DHT22;31328;51.402;0.016;2022-11-15T06:02:36;12.40;99.90
24902;DHT22;31328;51.402;0.016;2022-11-15T06:05:21;12.40;99.90
24902;DHT22;31328;51.402;0.016;2022-11-15T06:08:05;12.50;99.90
24902;DHT22;31328;51.402;0.016;2022-11-15T06:10:50;12.50;99.90
24902;DHT22;31328;51.402;0.016;2022-11-15T06:13:35;12.50;99.90
24902;DHT22;31328;51.402;0.016;2022-11-15T06:16:20;12.50;99.90
24902;DHT22;31328;51.402;0.016;2022-11-15T06:19:06;12.60;99.90
24902;DHT22;31328;51.402;0.016;2022-11-15T06:21:51;12.60;99.90
24902;DHT22;31328;51.402;0.016;2022-11-15T06:24:36;12.60;99.90
24902;DHT22;31328;51.402;0.016;2022-11-15T06:27:21;12.60;99.90
24902;DHT22;31328;51.402;0.016;2022-11-15T06:30:06;12.60;99.90
24902;DHT22;31328;51.402;0.016;2022-11-15T06:32:51;12.60;99.90
24902;DHT22;31328;51.402;0.016;2022-11-15T06:35:37;12.60;99.90
24902;DHT22;31328;51.402;0.016;2022-11-15T06:38:22;12.60;99.90
24902;DHT22;31328;51.402;0.016;2022-11-15T06:41:09;12.70;99.90
24902;DHT22;31328;51.402;0.016;2022-11-15T06:43:54;12.70;99.90
24902;DHT22;31328;51.402;0.016;2022-11-15T06:46:39;12.70;99.90
24902;DHT22;31328;51.402;0.016;2022-11-15T06:49:23;12.70;99.90
24902;DHT22;31328;51.402;0.016;2022-11-15T06:52:08;12.70;99.90
24902;DHT22;31328;51.402;0.016;2022-11-15T06:54:53;12.70;99.90
24902;DHT22;31328;51.402;0.016;2022-11-15T06:57:46;12.70;99.90
24902;DHT22;31328;51.402;0.016;2022-11-15T07:00:31;12.70;99.90
24902;DHT22;31328;51.402;0.016;2022-11-15T07:03:17;12.70;99.90
24902;DHT22;31328;51.402;0.016;2022-11-15T07:06:01;12.70;99.90
24902;DHT22;31328;51.402;0.016;2022-11-15T07:08:46;12.70;99.90
24902;DHT22;31328;51.402;0.016;2022-11-15T07:11:32;12.70;99.90
24902;DHT22;31328;51.402;0.016;2022-11-15T07:14:17;12.60;99.90
24902;DHT22;31328;51.402;0.016;2022-11-15T07:17:04;12.60;99.90
24902;DHT22;31328;51.402;0.016;2022-11-15T07:19:49;12.60;99.90
24902;DHT22;31328;51.402;0.016;2022-11-15T07:22:34;12.60;99.90
24902;DHT22;31328;51.402;0.016;2022-11-15T07:25:19;12.60;99.90
24902;DHT22;31328;51.402;0.016;2022-11-15T07:28:04;12.60;99.90
24902;DHT22;31328;51.402;0.016;2022-11-15T07:30:49;12.60;99.90
24902;DHT22;31328;51.402;0.016;2022-11-15T07:33:34;12.60;99.90
24902;DHT22;31328;51.402;0.016;2022-11-15T07:36:19;12.60;99.90
24902;DHT22;31328;51.402;0.016;2022-11-15T07:39:04;12.60;99.90
24902;DHT22;31328;51.402;0.016;2022-11-15T07:41:49;12.60;99.90
24902;DHT22;31328;51.402;0.016;2022-11-15T07:44:53;12.60;99.90
24902;DHT22;31328;51.402;0.016;2022-11-15T07:47:38;12.60;99.90
24902;DHT22;31328;51.402;0.016;2022-11-15T07:50:23;12.50;99.90
24902;DHT22;31328;51.402;0.016;2022-11-15T07:53:09;12.60;99.90
24902;DHT22;31328;51.402;0.016;2022-11-15T07:55:55;12.50;99.90
24902;DHT22;31328;51.402;0.016;2022-11-15T07:58:40;12.40;99.90
24902;DHT22;31328;51.402;0.016;2022-11-15T08:01:25;12.40;99.90
24902;DHT22;31328;51.402;0.016;2022-11-15T08:04:10;12.40;99.90
24902;DHT22;31328;51.402;0.016;2022-11-15T08:06:55;12.40;99.90
24902;DHT22;31328;51.402;0.016;2022-11-15T08:09:41;12.40;99.90
24902;DHT22;31328;51.402;0.016;2022-11-15T08:12:27;12.30;99.90
24902;DHT22;31328;51.402;0.016;2022-11-15T08:15:13;12.30;99.90
24902;DHT22;31328;51.402;0.016;2022-11-15T08:18:00;12.20;99.90
24902;DHT22;31328;51.402;0.016;2022-11-15T08:20:45;12.20;99.90
24902;DHT22;31328;51.402;0.016;2022-11-15T08:23:30;12.20;99.90
24902;DHT22;31328;51.402;0.016;2022-11-15T08:26:15;12.20;99.90
24902;DHT22;31328;51.402;0.016;2022-11-15T08:29:00;12.20;99.90
24902;DHT22;31328;51.402;0.016;2022-11-15T08:31:46;12.20;99.90
24902;DHT22;31328;51.402;0.016;2022-11-15T08:34:30;12.20;99.90
24902;DHT22;31328;51.402;0.016;2022-11-15T08:37:16;12.20;99.90
24902;DHT22;31328;51.402;0.016;2022-11-15T08:40:00;12.10;99.90
24902;DHT22;31328;51.402;0.016;2022-11-15T08:42:47;12.20;99.90
24902;DHT22;31328;51.402;0.016;2022-11-15T08:45:33;12.20;99.90
24902;DHT22;31328;51.402;0.016;2022-11-15T08:48:18;12.20;99.90
24902;DHT22;31328;51.402;0.016;2022-11-15T08:51:04;12.20;99.90
24902;DHT22;31328;51.402;0.016;2022-11-15T08:53:49;12.20;99.90
24902;DHT22;31328;51.402;0.016;2022-11-15T08:56:35;12.20;99.90
24902;DHT22;31328;51.402;0.016;2022-11-15T08:59:20;12.30;99.90
24902;DHT22;31328;51.402;0.016;2022-11-15T09:02:06;12.30;99.90
24902;DHT22;31328;51.402;0.016;2022-11-15T09:04:51;12.30;99.90
24902;DHT22;31328;51.402;0.016;2022-11-15T09:07:35;12.30;99.90
24902;DHT22;31328;51.402;0.016;2022-11-15T09:10:21;12.40;99.90
24902;DHT22;31328;51.402;0.016;2022-11-15T09:13:06;12.40;99.90
24902;DHT22;31328;51.402;0.016;2022-11-15T09:15:51;12.50;99.90
24902;DHT22;31328;51.402;0.016;2022-11-15T09:18:36;12.50;99.90
24902;DHT22;31328;51.402;0.016;2022-11-15T09:21:20;12.50;99.90
24902;DHT22;31328;51.402;0.016;2022-11-15T09:24:05;12.50;99.90
24902;DHT22;31328;51.402;0.016;2022-11-15T09:26:51;12.60;99.90
24902;DHT22;31328;51.402;0.016;2022-11-15T09:29:36;12.60;99.90
24902;DHT22;31328;51.402;0.016;2022-11-15T09:32:21;12.60;99.90
24902;DHT22;31328;51.402;0.016;2022-11-15T09:35:07;12.60;99.90
24902;DHT22;31328;51.402;0.016;2022-11-15T09:37:52;12.60;99.90
24902;DHT22;31328;51.402;0.016;2022-11-15T09:40:37;12.70;99.90
24902;DHT22;31328;51.402;0.016;2022-11-15T09:46:16;12.70;99.90
24902;DHT22;31328;51.402;0.016;2022-11-15T09:49:07;12.70;99.90
24902;DHT22;31328;51.402;0.016;2022-11-15T09:51:54;12.70;99.90
24902;DHT22;31328;51.402;0.016;2022-11-15T09:54:33;12.70;99.90
24902;DHT22;31328;51.402;0.016;2022-11-15T09:57:12;12.70;99.90
24902;DHT22;31328;51.402;0.016;2022-11-15T09:59:53;12.70;99.90
24902;DHT22;31328;51.402;0.016;2022-11-15T10:02:36;12.70;99.90
24902;DHT22;31328;51.402;0.016;2022-11-15T10:05:09;12.70;99.90
24902;DHT22;31328;51.402;0.016;2022-11-15T10:12:56;12.70;99.90
24902;DHT22;31328;51.402;0.016;2022-11-15T10:15:24;12.70;99.90
24902;DHT22;31328;51.402;0.016;2022-11-15T10:18:09;12.70;99.90
24902;DHT22;31328;51.402;0.016;2022-11-15T10:20:47;12.70;99.90
24902;DHT22;31328;51.402;0.016;2022-11-15T10:23:17;12.80;99.90
24902;DHT22;31328;51.402;0.016;2022-11-15T10:25:44;12.70;99.90
24902;DHT22;31328;51.402;0.016;2022-11-15T10:28:22;12.80;99.90
24902;DHT22;31328;51.402;0.016;2022-11-15T10:30:55;12.70;99.90
24902;DHT22;31328;51.402;0.016;2022-11-15T10:33:32;12.80;99.90
24902;DHT22;31328;51.402;0.016;2022-11-15T10:36:15;12.80;99.90
24902;DHT22;31328;51.402;0.016;2022-11-15T10:41:37;12.80;99.90
24902;DHT22;31328;51.402;0.016;2022-11-15T10:46:34;12.90;99.90
24902;DHT22;31328;51.402;0.016;2022-11-15T10:49:15;13.00;99.90
24902;DHT22;31328;51.402;0.016;2022-11-15T10:51:48;13.00;99.90
24902;DHT22;31328;51.402;0.016;2022-11-15T10:54:42;13.00;99.90
24902;DHT22;31328;51.402;0.016;2022-11-15T10:57:16;13.00;99.90
24902;DHT22;31328;51.402;0.016;2022-11-15T11:05:37;13.00;99.90
24902;DHT22;31328;51.402;0.016;2022-11-15T11:08:05;13.00;99.90
24902;DHT22;31328;51.402;0.016;2022-11-15T11:10:59;13.00;99.90
24902;DHT22;31328;51.402;0.016;2022-11-15T11:13:33;13.00;99.90
24902;DHT22;31328;51.402;0.016;2022-11-15T11:18:51;13.10;99.90
24902;DHT22;31328;51.402;0.016;2022-11-15T11:24:28;13.10;99.90
24902;DHT22;31328;51.402;0.016;2022-11-15T11:35:01;13.00;99.90
24902;DHT22;31328;51.402;0.016;2022-11-15T11:37:49;13.00;99.90
24902;DHT22;31328;51.402;0.016;2022-11-15T11:43:30;13.10;99.90
24902;DHT22;31328;51.402;0.016;2022-11-15T11:49:10;13.10;99.90
24902;DHT22;31328;51.402;0.016;2022-11-15T11:51:49;13.10;99.90
24902;DHT22;31328;51.402;0.016;2022-11-15T11:54:20;13.10;99.90
24902;DHT22;31328;51.402;0.016;2022-11-15T11:56:48;13.10;99.90
24902;DHT22;31328;51.402;0.016;2022-11-15T11:59:41;13.10;99.90
24902;DHT22;31328;51.402;0.016;2022-11-15T12:02:29;13.10;99.90
24902;DHT22;31328;51.402;0.016;2022-11-15T12:05:04;13.10;99.90
24902;DHT22;31328;51.402;0.016;2022-11-15T12:07:34;13.10;99.90
24902;DHT22;31328;51.402;0.016;2022-11-15T12:10:20;13.10;99.90
24902;DHT22;31328;51.402;0.016;2022-11-15T12:15:24;13.10;99.90
24902;DHT22;31328;51.402;0.016;2022-11-15T12:17:52;13.10;99.90
24902;DHT22;31328;51.402;0.016;2022-11-15T12:20:29;13.10;99.90
24902;DHT22;31328;51.402;0.016;2022-11-15T12:23:05;13.10;99.90
24902;DHT22;31328;51.402;0.016;2022-11-15T12:25:53;13.10;99.90
24902;DHT22;31328;51.402;0.016;2022-11-15T12:28:42;13.10;99.90
24902;DHT22;31328;51.402;0.016;2022-11-15T12:34:01;13.10;99.90
24902;DHT22;31328;51.402;0.016;2022-11-15T12:36:37;13.10;99.90
24902;DHT22;31328;51.402;0.016;2022-11-15T12:39:07;13.10;99.90
24902;DHT22;31328;51.402;0.016;2022-11-15T12:41:37;13.10;99.90
24902;DHT22;31328;51.402;0.016;2022-11-15T12:44:04;13.10;99.90
24902;DHT22;31328;51.402;0.016;2022-11-15T12:49:42;13.20;99.90
24902;DHT22;31328;51.402;0.016;2022-11-15T12:59:52;13.20;99.90
24902;DHT22;31328;51.402;0.016;2022-11-15T13:17:49;13.30;99.90
24902;DHT22;31328;51.402;0.016;2022-11-15T13:33:17;13.40;99.90
24902;DHT22;31328;51.402;0.016;2022-11-15T13:35:53;13.50;99.90
24902;DHT22;31328;51.402;0.016;2022-11-15T13:38:35;13.60;99.90
24902;DHT22;31328;51.402;0.016;2022-11-15T13:43:44;13.80;99.90
24902;DHT22;31328;51.402;0.016;2022-11-15T13:46:25;13.80;99.90
24902;DHT22;31328;51.402;0.016;2022-11-15T13:48:58;13.90;99.90
24902;DHT22;31328;51.402;0.016;2022-11-15T13:51:46;13.90;99.90
24902;DHT22;31328;51.402;0.016;2022-11-15T13:56:42;14.00;99.90
24902;DHT22;31328;51.402;0.016;2022-11-15T13:59:23;14.00;99.90
24902;DHT22;31328;51.402;0.016;2022-11-15T14:01:52;14.00;99.90
24902;DHT22;31328;51.402;0.016;2022-11-15T14:04:22;14.10;99.90
24902;DHT22;31328;51.402;0.016;2022-11-15T14:06:51;14.10;99.90
24902;DHT22;31328;51.402;0.016;2022-11-15T14:12:02;14.10;99.90
24902;DHT22;31328;51.402;0.016;2022-11-15T14:14:29;14.10;99.90
24902;DHT22;31328;51.402;0.016;2022-11-15T14:16:58;14.00;99.90
24902;DHT22;31328;51.402;0.016;2022-11-15T14:22:23;14.00;99.90
24902;DHT22;31328;51.402;0.016;2022-11-15T14:27:44;14.00;99.90
24902;DHT22;31328;51.402;0.016;2022-11-15T14:30:16;13.90;99.90
24902;DHT22;31328;51.402;0.016;2022-11-15T14:32:48;13.90;99.90
24902;DHT22;31328;51.402;0.016;2022-11-15T14:35:20;13.90;99.90
24902;DHT22;31328;51.402;0.016;2022-11-15T14:37:47;13.90;99.90
24902;DHT22;31328;51.402;0.016;2022-11-15T14:40:16;13.80;99.90
24902;DHT22;31328;51.402;0.016;2022-11-15T14:42:48;13.80;99.90
24902;DHT22;31328;51.402;0.016;2022-11-15T14:45:18;13.80;99.90
24902;DHT22;31328;51.402;0.016;2022-11-15T14:47:45;13.90;99.90
24902;DHT22;31328;51.402;0.016;2022-11-15T14:50:13;13.80;99.90
24902;DHT22;31328;51.402;0.016;2022-11-15T14:52:39;13.80;99.90
24902;DHT22;31328;51.402;0.016;2022-11-15T14:55:17;13.80;99.90
24902;DHT22;31328;51.402;0.016;2022-11-15T14:57:45;13.70;99.90
24902;DHT22;31328;51.402;0.016;2022-11-15T15:00:12;13.70;99.90
24902;DHT22;31328;51.402;0.016;2022-11-15T15:02:40;13.60;99.90
24902;DHT22;31328;51.402;0.016;2022-11-15T15:05:30;13.60;99.90
24902;DHT22;31328;51.402;0.016;2022-11-15T15:07:57;13.60;99.90
24902;DHT22;31328;51.402;0.016;2022-11-15T15:10:24;13.50;99.90
24902;DHT22;31328;51.402;0.016;2022-11-15T15:12:51;13.40;99.90
24902;DHT22;31328;51.402;0.016;2022-11-15T15:15:23;13.40;99.90
24902;DHT22;31328;51.402;0.016;2022-11-15T15:17:50;13.30;99.90
24902;DHT22;31328;51.402;0.016;2022-11-15T15:20:17;13.30;99.90
24902;DHT22;31328;51.402;0.016;2022-11-15T15:22:44;13.30;99.90
24902;DHT22;31328;51.402;0.016;2022-11-15T15:27:45;13.20;99.90
24902;DHT22;31328;51.402;0.016;2022-11-15T15:30:12;13.20;99.90
24902;DHT22;31328;51.402;0.016;2022-11-15T15:32:38;13.20;99.90
24902;DHT22;31328;51.402;0.016;2022-11-15T15:35:04;13.10;99.90
24902;DHT22;31328;51.402;0.016;2022-11-15T15:37:31;13.10;99.90
24902;DHT22;31328;51.402;0.016;2022-11-15T15:39:59;13.10;99.90
24902;DHT22;31328;51.402;0.016;2022-11-15T15:42:26;13.10;99.90
24902;DHT22;31328;51.402;0.016;2022-11-15T15:44:52;13.00;99.90
24902;DHT22;31328;51.402;0.016;2022-11-15T15:47:21;13.00;99.90
24902;DHT22;31328;51.402;0.016;2022-11-15T15:49:49;13.00;99.90
24902;DHT22;31328;51.402;0.016;2022-11-15T15:52:16;12.90;99.90
24902;DHT22;31328;51.402;0.016;2022-11-15T15:54:42;12.90;99.90
24902;DHT22;31328;51.402;0.016;2022-11-15T15:57:12;12.90;99.90
24902;DHT22;31328;51.402;0.016;2022-11-15T15:59:38;12.80;99.90
24902;DHT22;31328;51.402;0.016;2022-11-15T16:02:05;12.80;99.90
24902;DHT22;31328;51.402;0.016;2022-11-15T16:04:31;12.70;99.90
24902;DHT22;31328;51.402;0.016;2022-11-15T16:07:01;12.70;99.90
24902;DHT22;31328;51.402;0.016;2022-11-15T16:09:28;12.70;99.90
24902;DHT22;31328;51.402;0.016;2022-11-15T16:12:13;12.70;99.90
24902;DHT22;31328;51.402;0.016;2022-11-15T16:14:40;12.60;99.90
24902;DHT22;31328;51.402;0.016;2022-11-15T16:17:15;12.60;99.90
24902;DHT22;31328;51.402;0.016;2022-11-15T16:19:42;12.60;99.90
24902;DHT22;31328;51.402;0.016;2022-11-15T16:22:09;12.60;99.90
24902;DHT22;31328;51.402;0.016;2022-11-15T16:24:35;12.50;99.90
24902;DHT22;31328;51.402;0.016;2022-11-15T16:27:01;12.50;99.90
24902;DHT22;31328;51.402;0.016;2022-11-15T16:29:28;12.60;99.90
24902;DHT22;31328;51.402;0.016;2022-11-15T16:31:54;12.50;99.90
24902;DHT22;31328;51.402;0.016;2022-11-15T16:34:20;12.50;99.90
24902;DHT22;31328;51.402;0.016;2022-11-15T16:36:47;12.60;99.90
24902;DHT22;31328;51.402;0.016;2022-11-15T16:39:14;12.60;99.90
24902;DHT22;31328;51.402;0.016;2022-11-15T16:41:43;12.60;99.90
24902;DHT22;31328;51.402;0.016;2022-11-15T16:44:13;12.60;99.90
24902;DHT22;31328;51.402;0.016;2022-11-15T16:46:43;12.60;99.90
24902;DHT22;31328;51.402;0.016;2022-11-15T16:49:14;12.50;99.90
24902;DHT22;31328;51.402;0.016;2022-11-15T16:51:41;12.50;99.90
24902;DHT22;31328;51.402;0.016;2022-11-15T16:54:10;12.50;99.90
24902;DHT22;31328;51.402;0.016;2022-11-15T16:56:36;12.50;99.90
24902;DHT22;31328;51.402;0.016;2022-11-15T16:59:04;12.40;99.90
24902;DHT22;31328;51.402;0.016;2022-11-15T17:01:32;12.40;99.90
24902;DHT22;31328;51.402;0.016;2022-11-15T17:04:01;12.30;99.90
24902;DHT22;31328;51.402;0.016;2022-11-15T17:06:42;12.30;99.90
24902;DHT22;31328;51.402;0.016;2022-11-15T17:09:20;12.30;99.90
24902;DHT22;31328;51.402;0.016;2022-11-15T17:11:50;12.30;99.90
24902;DHT22;31328;51.402;0.016;2022-11-15T17:14:16;12.30;99.90
24902;DHT22;31328;51.402;0.016;2022-11-15T17:16:43;12.20;99.90
24902;DHT22;31328;51.402;0.016;2022-11-15T17:19:14;12.20;99.90
24902;DHT22;31328;51.402;0.016;2022-11-15T17:21:42;12.10;99.90
24902;DHT22;31328;51.402;0.016;2022-11-15T17:24:08;12.10;99.90
24902;DHT22;31328;51.402;0.016;2022-11-15T17:26:35;12.10;99.90
24902;DHT22;31328;51.402;0.016;2022-11-15T17:29:03;12.10;99.90
24902;DHT22;31328;51.402;0.016;2022-11-15T17:31:36;12.00;99.90
24902;DHT22;31328;51.402;0.016;2022-11-15T17:34:04;12.00;99.90
24902;DHT22;31328;51.402;0.016;2022-11-15T17:36:31;12.00;99.90
24902;DHT22;31328;51.402;0.016;2022-11-15T17:38:57;12.10;99.90
24902;DHT22;31328;51.402;0.016;2022-11-15T17:41:23;12.10;99.90
24902;DHT22;31328;51.402;0.016;2022-11-15T17:43:50;12.10;99.90
24902;DHT22;31328;51.402;0.016;2022-11-15T17:46:19;12.10;99.90
24902;DHT22;31328;51.402;0.016;2022-11-15T17:48:46;12.10;99.90
24902;DHT22;31328;51.402;0.016;2022-11-15T17:51:15;12.00;99.90
24902;DHT22;31328;51.402;0.016;2022-11-15T17:53:44;12.00;99.90
24902;DHT22;31328;51.402;0.016;2022-11-15T17:56:16;11.90;99.90
24902;DHT22;31328;51.402;0.016;2022-11-15T17:58:57;12.00;99.90
24902;DHT22;31328;51.402;0.016;2022-11-15T18:01:24;12.00;99.90
24902;DHT22;31328;51.402;0.016;2022-11-15T18:03:52;12.00;99.90
24902;DHT22;31328;51.402;0.016;2022-11-15T18:06:20;11.90;99.90
24902;DHT22;31328;51.402;0.016;2022-11-15T18:08:48;11.90;99.90
24902;DHT22;31328;51.402;0.016;2022-11-15T18:11:29;11.90;99.90
24902;DHT22;31328;51.402;0.016;2022-11-15T18:14:07;11.90;99.90
24902;DHT22;31328;51.402;0.016;2022-11-15T18:16:35;11.90;99.90
24902;DHT22;31328;51.402;0.016;2022-11-15T18:19:03;11.90;99.90
24902;DHT22;31328;51.402;0.016;2022-11-15T18:21:34;11.80;99.90
24902;DHT22;31328;51.402;0.016;2022-11-15T18:24:25;11.80;99.90
24902;DHT22;31328;51.402;0.016;2022-11-15T18:26:52;11.80;99.90
24902;DHT22;31328;51.402;0.016;2022-11-15T18:29:19;11.80;99.90
24902;DHT22;31328;51.402;0.016;2022-11-15T18:31:45;11.80;99.90
24902;DHT22;31328;51.402;0.016;2022-11-15T18:34:15;11.80;99.90
24902;DHT22;31328;51.402;0.016;2022-11-15T18:36:42;11.80;99.90
24902;DHT22;31328;51.402;0.016;2022-11-15T18:39:09;11.70;99.90
24902;DHT22;31328;51.402;0.016;2022-11-15T18:41:42;11.70;99.90
24902;DHT22;31328;51.402;0.016;2022-11-15T18:44:09;11.70;99.90
24902;DHT22;31328;51.402;0.016;2022-11-15T18:46:35;11.60;99.90
24902;DHT22;31328;51.402;0.016;2022-11-15T18:49:01;11.60;99.90
24902;DHT22;31328;51.402;0.016;2022-11-15T18:51:30;11.60;99.90
24902;DHT22;31328;51.402;0.016;2022-11-15T18:53:58;11.50;99.90
24902;DHT22;31328;51.402;0.016;2022-11-15T18:56:26;11.50;99.90
24902;DHT22;31328;51.402;0.016;2022-11-15T18:58:55;11.50;99.90
24902;DHT22;31328;51.402;0.016;2022-11-15T19:03:54;11.40;99.90